Main page
METAR-TAF:

METAR-TAF

Airports :

Craiova International Airport

Craiova, Romania

latitude: 44-14N, longitude: 023-52E, elevation: 192 m

Current weather observation

The report was made 28 minutes ago, at 19:00 UTC
Wind 3 kt from the West/Southwest, varying between Southwest and West/Northwest
Temperature 24°C
Humidity 36%
Pressure 1015 hPa
Visibility 10 km or more
no clouds below 1500 m and no cumulonimbus

METAR: LRCV 161900Z 25003KT 220V290 CAVOK 24/08 Q1015

Time: 22:28 (19:28 UTC)

Forecast

The report was made 2 hours and 28 minutes ago, at 17:00 UTC
Forecast valid from 16 at 18 UTC to 17 at 03 UTC
Wind 4 kt from variable directions
Visibility 10 km or more
no clouds below 1500 m and no cumulonimbus
Probability 30% :
Temporary
from 17 at 01 UTC to 17 at 03 UTC
Scattered clouds at a height of 3500 ft, Cumulonimbus.

TAF: LRCV 161700Z 1618/1703 VRB04KT CAVOK PROB30 TEMPO 1701/1703 SCT035CB

Weather observations and forecasts of more than 4000 airports (METAR and TAF reports).

The available stations are represented by yellow and red dots on the map.

Hover mouse over dot to see the name of the station.

Then click to see weather observations and forecasts.

To change the map : click on the green buttons with a black cross to zoom in, on the green button with a dash to zoom out, or on the green arrows for adjacent maps.


METAR-TAF: